createdAt,value
2023-02-02T00:01:35.707Z,6.20
2023-02-02T00:04:04.528Z,6.20
2023-02-02T00:06:33.669Z,6.20
2023-02-02T00:09:03.636Z,6.20
2023-02-02T00:11:31.621Z,6.20
2023-02-02T00:14:00.883Z,6.20
2023-02-02T00:16:44.050Z,6.20
2023-02-02T00:19:14.640Z,6.20
2023-02-02T00:21:43.280Z,6.20
2023-02-02T00:24:12.716Z,6.20
2023-02-02T00:26:42.562Z,6.20
2023-02-02T00:29:16.272Z,6.20
2023-02-02T00:31:46.033Z,6.20
2023-02-02T00:34:15.169Z,6.20
2023-02-02T00:36:44.040Z,6.20
2023-02-02T00:39:13.991Z,6.20
2023-02-02T00:41:41.944Z,6.20
2023-02-02T00:44:27.429Z,6.20
2023-02-02T00:46:56.762Z,6.20
2023-02-02T00:49:25.183Z,6.20
2023-02-02T00:51:54.414Z,6.20
2023-02-02T00:54:23.047Z,6.20
2023-02-02T00:56:51.085Z,6.20
2023-02-02T00:59:19.092Z,6.20
2023-02-02T01:01:47.141Z,6.30
2023-02-02T01:04:16.507Z,6.30
2023-02-02T01:06:44.499Z,6.30
2023-02-02T01:09:12.514Z,6.40
2023-02-02T01:11:40.566Z,6.30
2023-02-02T01:14:08.570Z,6.40
2023-02-02T01:16:36.666Z,6.40
2023-02-02T01:19:04.923Z,6.40
2023-02-02T01:21:34.283Z,6.40
2023-02-02T01:24:02.390Z,6.40
2023-02-02T01:26:30.664Z,6.30
2023-02-02T01:28:58.666Z,6.30
2023-02-02T01:31:27.224Z,6.30
2023-02-02T01:33:55.212Z,6.40
2023-02-02T01:36:24.725Z,6.30
2023-02-02T01:38:54.053Z,6.30
2023-02-02T01:41:23.569Z,6.30
2023-02-02T01:43:59.879Z,6.20
2023-02-02T01:46:29.995Z,6.20
2023-02-02T01:49:03.881Z,6.20
2023-02-02T01:51:41.501Z,6.20
2023-02-02T01:54:13.578Z,6.20
2023-02-02T01:56:46.742Z,6.20
2023-02-02T01:59:17.258Z,6.20
2023-02-02T02:01:47.792Z,6.30
2023-02-02T02:04:16.509Z,6.30
2023-02-02T02:06:45.321Z,6.30
2023-02-02T02:09:14.785Z,6.30
2023-02-02T02:11:42.797Z,6.30
2023-02-02T02:14:30.241Z,6.30
2023-02-02T02:17:10.969Z,6.30
2023-02-02T02:20:41.603Z,6.30
2023-02-02T02:23:51.578Z,6.20
2023-02-02T02:26:44.345Z,6.20
2023-02-02T02:29:38.083Z,6.10
2023-02-02T02:32:28.967Z,6.20
2023-02-02T02:35:05.266Z,6.20
2023-02-02T02:37:40.596Z,6.20
2023-02-02T02:40:16.883Z,6.20
2023-02-02T02:42:49.849Z,6.30
2023-02-02T02:45:18.939Z,6.30
2023-02-02T02:47:51.046Z,6.30
2023-02-02T02:50:19.050Z,6.30
2023-02-02T02:52:49.300Z,6.30
2023-02-02T02:55:17.455Z,6.30
2023-02-02T02:57:58.732Z,6.30
2023-02-02T03:00:37.916Z,6.30
2023-02-02T03:03:14.893Z,6.30
2023-02-02T03:05:52.047Z,6.30
2023-02-02T03:08:25.585Z,6.40
2023-02-02T03:10:54.849Z,6.40
2023-02-02T03:13:22.941Z,6.40
2023-02-02T03:15:50.937Z,6.40
2023-02-02T03:18:23.200Z,6.40
2023-02-02T03:20:51.189Z,6.50
2023-02-02T03:23:19.515Z,6.40
2023-02-02T03:25:47.721Z,6.40
2023-02-02T03:28:16.549Z,6.40
2023-02-02T03:30:46.338Z,6.40
2023-02-02T03:33:15.906Z,6.40
2023-02-02T03:35:45.248Z,6.40
2023-02-02T03:38:13.544Z,6.40
2023-02-02T03:40:41.809Z,6.50
2023-02-02T03:43:09.967Z,6.40
2023-02-02T03:45:40.664Z,6.40
2023-02-02T03:48:09.044Z,6.40
2023-02-02T03:50:38.560Z,6.30
2023-02-02T03:53:08.046Z,6.30
2023-02-02T03:55:36.085Z,6.30
2023-02-02T03:58:04.035Z,6.30
2023-02-02T04:00:32.036Z,6.30
2023-02-02T04:03:00.465Z,6.30
2023-02-02T04:05:28.495Z,6.40
2023-02-02T04:07:56.407Z,6.40
2023-02-02T04:10:25.708Z,6.40
2023-02-02T04:12:53.629Z,6.50
2023-02-02T04:15:22.939Z,6.40
2023-02-02T04:17:51.179Z,6.50
2023-02-02T04:20:19.412Z,6.40
2023-02-02T04:22:47.307Z,6.40
2023-02-02T04:25:15.404Z,6.40
2023-02-02T04:27:44.683Z,6.40
2023-02-02T04:30:13.415Z,6.40
2023-02-02T04:32:41.397Z,6.40
2023-02-02T04:35:10.273Z,6.40
2023-02-02T04:37:38.219Z,6.40
2023-02-02T04:40:07.267Z,6.50
2023-02-02T04:42:35.276Z,6.50
2023-02-02T04:45:05.078Z,6.50
2023-02-02T04:47:33.109Z,6.50
2023-02-02T04:50:01.129Z,6.50
2023-02-02T04:52:30.243Z,6.50
2023-02-02T04:54:58.346Z,6.60
2023-02-02T04:57:26.315Z,6.60
2023-02-02T04:59:54.300Z,6.60
2023-02-02T05:02:23.691Z,6.60
2023-02-02T05:04:51.681Z,6.60
2023-02-02T05:07:19.692Z,6.70
2023-02-02T05:09:47.651Z,6.70
2023-02-02T05:12:15.625Z,6.60
2023-02-02T05:14:43.595Z,6.60
2023-02-02T05:17:11.566Z,6.70
2023-02-02T05:19:40.861Z,6.70
2023-02-02T05:22:08.797Z,6.70
2023-02-02T05:24:36.706Z,6.70
2023-02-02T05:27:04.821Z,6.70
2023-02-02T05:29:33.044Z,6.80
2023-02-02T05:32:01.186Z,6.80
2023-02-02T05:34:29.124Z,6.80
2023-02-02T05:36:58.361Z,6.80
2023-02-02T05:39:26.377Z,6.80
2023-02-02T05:41:54.267Z,6.70
2023-02-02T05:44:22.416Z,6.70
2023-02-02T05:46:50.409Z,6.70
2023-02-02T05:49:18.355Z,6.70
2023-02-02T05:51:48.336Z,6.60
2023-02-02T05:54:20.441Z,6.70
2023-02-02T05:56:49.173Z,6.70
2023-02-02T05:59:17.527Z,6.70
2023-02-02T06:01:45.968Z,6.70
2023-02-02T06:04:14.616Z,6.70
2023-02-02T06:06:43.958Z,6.70
2023-02-02T06:09:12.316Z,6.60
2023-02-02T06:11:41.684Z,6.70
2023-02-02T06:14:09.622Z,6.80
2023-02-02T06:16:40.293Z,6.80
2023-02-02T06:19:12.967Z,6.80
2023-02-02T06:21:43.471Z,6.70
2023-02-02T06:24:26.621Z,6.70
2023-02-02T06:26:56.113Z,6.70
2023-02-02T06:29:24.167Z,6.70
2023-02-02T06:31:52.306Z,6.80
2023-02-02T06:34:20.571Z,6.80
2023-02-02T06:36:48.969Z,6.80
2023-02-02T06:39:17.200Z,6.70
2023-02-02T06:41:46.628Z,6.80
2023-02-02T06:44:16.212Z,6.80
2023-02-02T06:46:44.179Z,6.80
2023-02-02T06:49:12.123Z,6.80
2023-02-02T06:51:40.097Z,6.70
2023-02-02T06:54:08.074Z,6.80
2023-02-02T06:56:36.000Z,6.80
2023-02-02T06:59:03.999Z,6.80
2023-02-02T07:01:33.459Z,6.90
2023-02-02T07:04:01.449Z,6.90
2023-02-02T07:06:30.434Z,6.80
2023-02-02T07:09:02.957Z,6.90
2023-02-02T07:11:33.726Z,6.90
2023-02-02T07:14:03.123Z,6.90
2023-02-02T07:16:32.883Z,6.90
2023-02-02T07:19:00.819Z,6.90
2023-02-02T07:21:30.101Z,6.90
2023-02-02T07:23:59.044Z,6.90
2023-02-02T07:26:27.709Z,6.90
2023-02-02T07:28:56.004Z,6.90
2023-02-02T07:31:26.097Z,7.00
2023-02-02T07:33:55.514Z,7.00
2023-02-02T07:36:25.648Z,7.00
2023-02-02T07:38:55.264Z,6.90
2023-02-02T07:41:23.355Z,6.90
2023-02-02T07:43:51.836Z,7.00
2023-02-02T07:46:20.931Z,7.00
2023-02-02T07:48:49.423Z,7.00
2023-02-02T07:51:19.640Z,7.00
2023-02-02T07:53:48.955Z,6.90
2023-02-02T07:56:18.809Z,6.90
2023-02-02T07:58:47.036Z,6.90
2023-02-02T08:01:17.132Z,6.90
2023-02-02T08:03:45.585Z,6.90
2023-02-02T08:06:16.479Z,7.00
2023-02-02T08:08:45.817Z,7.00
2023-02-02T08:11:15.900Z,7.10
2023-02-02T08:13:44.220Z,7.20
2023-02-02T08:16:13.408Z,7.20
2023-02-02T08:18:42.264Z,7.20
2023-02-02T08:21:10.732Z,7.20
2023-02-02T08:23:39.946Z,7.30
2023-02-02T08:26:12.187Z,7.30
2023-02-02T08:28:40.954Z,7.40
2023-02-02T08:31:11.359Z,7.50
2023-02-02T08:33:40.248Z,7.60
2023-02-02T08:36:13.089Z,7.50
2023-02-02T08:38:41.121Z,7.50
2023-02-02T08:41:13.376Z,7.60
2023-02-02T08:43:42.286Z,7.60
2023-02-02T08:46:11.616Z,7.70
2023-02-02T08:48:40.110Z,7.80
2023-02-02T08:51:09.023Z,7.70
2023-02-02T08:53:37.072Z,7.60
2023-02-02T08:56:07.438Z,7.60
2023-02-02T08:58:36.825Z,7.60
2023-02-02T09:01:06.688Z,7.60
2023-02-02T09:03:35.333Z,7.60
2023-02-02T09:06:07.116Z,7.60
2023-02-02T09:08:35.194Z,7.60
2023-02-02T09:11:08.195Z,7.60
2023-02-02T09:13:38.809Z,7.60
2023-02-02T09:16:09.496Z,7.60
2023-02-02T09:18:37.624Z,7.60
2023-02-02T09:21:07.758Z,7.60
2023-02-02T09:23:37.622Z,7.60
2023-02-02T09:26:13.804Z,7.60
2023-02-02T09:28:44.760Z,7.60
2023-02-02T09:31:13.351Z,7.60
2023-02-02T09:33:42.120Z,7.60
2023-02-02T09:36:11.785Z,7.60
2023-02-02T09:38:40.758Z,7.70
2023-02-02T09:41:55.962Z,7.60
2023-02-02T09:44:41.765Z,7.60
2023-02-02T09:47:17.608Z,7.60
2023-02-02T09:49:56.047Z,7.50
2023-02-02T09:52:28.691Z,7.50
2023-02-02T09:55:01.767Z,7.50
2023-02-02T09:57:37.859Z,7.60
2023-02-02T10:00:26.602Z,7.60
2023-02-02T10:02:59.784Z,7.40
2023-02-02T10:05:32.370Z,7.40
2023-02-02T10:08:02.955Z,7.40
2023-02-02T10:10:36.388Z,7.40
2023-02-02T10:13:11.900Z,7.40
2023-02-02T10:15:49.147Z,7.50
2023-02-02T10:18:23.940Z,7.50
2023-02-02T10:20:58.327Z,7.70
2023-02-02T10:23:29.173Z,7.60
2023-02-02T10:26:03.442Z,7.60
2023-02-02T10:28:43.136Z,7.60
2023-02-02T10:31:25.720Z,7.60
2023-02-02T10:34:05.211Z,7.60
2023-02-02T10:36:45.758Z,7.60
2023-02-02T10:39:23.525Z,7.50
2023-02-02T10:42:05.985Z,7.50
2023-02-02T10:44:42.975Z,7.60
2023-02-02T10:47:18.229Z,7.60
2023-02-02T10:49:46.771Z,7.50
2023-02-02T10:52:18.748Z,7.50
2023-02-02T10:54:57.699Z,7.50
2023-02-02T10:57:44.710Z,7.60
2023-02-02T11:00:22.939Z,7.60
2023-02-02T11:02:53.699Z,7.60
2023-02-02T11:05:41.748Z,7.70
2023-02-02T11:08:15.600Z,7.70
2023-02-02T11:10:45.184Z,7.90
2023-02-02T11:13:22.693Z,8.00
2023-02-02T11:15:50.795Z,7.80
2023-02-02T11:18:32.377Z,7.70
2023-02-02T11:21:00.476Z,7.70
2023-02-02T11:23:29.662Z,7.70
2023-02-02T11:26:02.526Z,7.90
2023-02-02T11:28:35.495Z,7.90
2023-02-02T11:31:03.987Z,8.00
2023-02-02T11:33:35.555Z,8.00
2023-02-02T11:36:05.668Z,7.90
2023-02-02T11:38:33.983Z,7.80
2023-02-02T11:41:04.811Z,7.90
2023-02-02T11:43:40.946Z,8.00
2023-02-02T11:46:20.547Z,8.10
2023-02-02T11:48:59.649Z,8.00
2023-02-02T11:51:28.864Z,7.90
2023-02-02T11:54:04.992Z,7.90
2023-02-02T11:56:34.934Z,7.90
2023-02-02T11:59:04.077Z,7.70
2023-02-02T12:01:35.053Z,7.70
2023-02-02T12:04:22.426Z,7.80
2023-02-02T12:06:50.534Z,7.60
2023-02-02T12:09:22.309Z,7.70
2023-02-02T12:12:03.139Z,7.60
2023-02-02T12:14:40.742Z,7.60
2023-02-02T12:17:21.894Z,7.50
2023-02-02T12:20:23.607Z,7.50
2023-02-02T12:23:23.792Z,7.50
2023-02-02T12:26:04.291Z,7.40
2023-02-02T12:28:49.949Z,7.30
2023-02-02T12:31:29.411Z,7.20
2023-02-02T12:34:06.460Z,7.20
2023-02-02T12:36:50.622Z,7.10
2023-02-02T12:39:38.890Z,7.00
2023-02-02T12:42:40.289Z,7.00
2023-02-02T12:45:31.870Z,7.00
2023-02-02T12:48:14.433Z,7.00
2023-02-02T12:50:55.886Z,7.00
2023-02-02T12:53:42.929Z,6.90
2023-02-02T12:56:23.829Z,6.80
2023-02-02T12:59:00.585Z,6.80
2023-02-02T13:01:45.310Z,6.80
2023-02-02T13:04:26.539Z,6.70
2023-02-02T13:07:24.357Z,6.70
2023-02-02T13:10:03.978Z,6.70
2023-02-02T13:12:37.677Z,6.60
2023-02-02T13:15:10.092Z,6.60
2023-02-02T13:17:42.750Z,6.50
2023-02-02T13:20:21.347Z,6.50
2023-02-02T13:22:53.025Z,6.50
2023-02-02T13:25:28.135Z,6.50
2023-02-02T13:27:57.434Z,6.50
2023-02-02T13:30:32.254Z,6.60
2023-02-02T13:33:04.942Z,6.60
2023-02-02T13:35:36.425Z,6.60
2023-02-02T13:38:14.164Z,6.70
2023-02-02T13:40:44.865Z,6.80
2023-02-02T13:43:29.022Z,6.90
2023-02-02T13:46:12.982Z,6.80
2023-02-02T13:48:54.837Z,6.90
2023-02-02T13:51:51.601Z,6.90
2023-02-02T13:54:50.591Z,7.10
2023-02-02T13:57:32.897Z,7.20
2023-02-02T14:00:14.597Z,7.20
2023-02-02T14:02:46.037Z,7.20
2023-02-02T14:05:23.796Z,7.20
2023-02-02T14:07:58.073Z,7.10
2023-02-02T14:10:28.372Z,7.20
2023-02-02T14:13:05.657Z,7.20
2023-02-02T14:15:41.777Z,7.30
2023-02-02T14:18:09.815Z,7.40
2023-02-02T14:20:49.093Z,7.30
2023-02-02T14:23:52.145Z,7.40
2023-02-02T14:26:42.862Z,7.40
2023-02-02T14:29:58.217Z,7.40
2023-02-02T14:32:42.083Z,7.40
2023-02-02T14:35:47.452Z,7.50
2023-02-02T14:38:23.275Z,7.40
2023-02-02T14:40:57.969Z,7.40
2023-02-02T14:43:50.452Z,7.40
2023-02-02T14:46:48.296Z,7.50
2023-02-02T14:49:25.585Z,7.50
2023-02-02T14:51:58.135Z,7.50
2023-02-02T14:54:34.268Z,7.50
2023-02-02T14:57:06.845Z,7.50
2023-02-02T14:59:37.875Z,7.50
2023-02-02T15:02:18.901Z,7.50
2023-02-02T15:04:48.206Z,7.60
2023-02-02T15:07:51.149Z,7.60
2023-02-02T15:10:59.687Z,7.60
2023-02-02T15:13:30.213Z,7.60
2023-02-02T15:16:08.023Z,7.50
2023-02-02T15:18:44.837Z,7.50
2023-02-02T15:21:23.828Z,7.50
2023-02-02T15:23:52.067Z,7.50
2023-02-02T15:26:24.924Z,7.50
2023-02-02T15:28:56.895Z,7.50
2023-02-02T15:31:30.714Z,7.50
2023-02-02T15:34:03.559Z,7.50
2023-02-02T15:36:34.487Z,7.50
2023-02-02T15:39:22.434Z,7.50
2023-02-02T15:42:11.411Z,7.40
2023-02-02T15:44:39.767Z,7.40
2023-02-02T15:47:13.083Z,7.40
2023-02-02T15:49:42.896Z,7.40
2023-02-02T15:52:17.057Z,7.40
2023-02-02T15:54:53.869Z,7.40
2023-02-02T15:57:29.564Z,7.40
2023-02-02T15:59:58.774Z,7.40
2023-02-02T16:02:37.766Z,7.30
2023-02-02T16:05:25.746Z,7.30
2023-02-02T16:08:05.769Z,7.30
2023-02-02T16:10:35.001Z,7.40
2023-02-02T16:13:03.185Z,7.40
2023-02-02T16:15:32.934Z,7.40
2023-02-02T16:18:02.300Z,7.40
2023-02-02T16:20:35.631Z,7.40
2023-02-02T16:23:06.839Z,7.40
2023-02-02T16:25:40.317Z,7.40
2023-02-02T16:28:12.974Z,7.40
2023-02-02T16:30:42.153Z,7.40
2023-02-02T16:33:37.566Z,7.40
2023-02-02T16:36:24.516Z,7.50
2023-02-02T16:38:54.501Z,7.50
2023-02-02T16:41:32.906Z,7.50
2023-02-02T16:44:32.316Z,7.50
2023-02-02T16:47:01.486Z,7.50
2023-02-02T16:49:31.010Z,7.40
2023-02-02T16:52:16.328Z,7.50
2023-02-02T16:54:54.646Z,7.50
2023-02-02T16:57:26.080Z,7.50
2023-02-02T16:59:56.741Z,7.50
2023-02-02T17:02:31.799Z,7.40
2023-02-02T17:05:03.881Z,7.40
2023-02-02T17:07:36.548Z,7.40
2023-02-02T17:10:18.297Z,7.40
2023-02-02T17:12:59.550Z,7.40
2023-02-02T17:15:35.045Z,7.40
2023-02-02T17:18:05.354Z,7.40
2023-02-02T17:20:34.610Z,7.30
2023-02-02T17:23:06.838Z,7.30
2023-02-02T17:25:38.207Z,7.30
2023-02-02T17:28:11.622Z,7.30
2023-02-02T17:30:42.215Z,7.30
2023-02-02T17:33:14.724Z,7.30
2023-02-02T17:35:53.573Z,7.30
2023-02-02T17:38:25.057Z,7.30
2023-02-02T17:40:53.753Z,7.30
2023-02-02T17:43:22.175Z,7.20
2023-02-02T17:45:50.472Z,7.20
2023-02-02T17:48:18.619Z,7.20
2023-02-02T17:50:48.192Z,7.20
2023-02-02T17:53:18.124Z,7.20
2023-02-02T17:55:49.678Z,7.20
2023-02-02T17:58:18.622Z,7.20
2023-02-02T18:00:48.236Z,7.10
2023-02-02T18:03:20.739Z,7.10
2023-02-02T18:05:49.019Z,7.10
2023-02-02T18:08:17.097Z,7.10
2023-02-02T18:10:45.213Z,7.10
2023-02-02T18:13:16.295Z,7.10
2023-02-02T18:15:44.961Z,7.10
2023-02-02T18:18:13.318Z,7.10
2023-02-02T18:20:42.725Z,7.10
2023-02-02T18:23:12.439Z,7.10
2023-02-02T18:25:40.809Z,7.10
2023-02-02T18:28:09.530Z,7.10
2023-02-02T18:30:40.557Z,7.10
2023-02-02T18:33:09.089Z,7.00
2023-02-02T18:35:37.240Z,7.10
2023-02-02T18:38:05.165Z,7.10
2023-02-02T18:40:33.081Z,7.10
2023-02-02T18:43:00.971Z,7.10
2023-02-02T18:45:28.923Z,7.10
2023-02-02T18:47:58.232Z,7.10
2023-02-02T18:50:26.226Z,7.10
2023-02-02T18:52:54.377Z,7.10
2023-02-02T18:55:22.751Z,7.10
2023-02-02T18:57:50.749Z,7.00
2023-02-02T19:00:19.389Z,7.00
2023-02-02T19:02:47.378Z,7.00
2023-02-02T19:05:37.295Z,7.00
2023-02-02T19:08:06.460Z,7.00
2023-02-02T19:10:34.525Z,7.00
2023-02-02T19:13:15.395Z,7.00
2023-02-02T19:15:43.660Z,7.00
2023-02-02T19:18:15.394Z,7.00
2023-02-02T19:20:45.971Z,7.00
2023-02-02T19:23:15.657Z,7.00
2023-02-02T19:25:46.828Z,7.00
2023-02-02T19:28:22.288Z,6.90
2023-02-02T19:30:51.463Z,6.90
2023-02-02T19:33:20.191Z,6.90
2023-02-02T19:35:52.990Z,6.90
2023-02-02T19:38:30.660Z,7.00
2023-02-02T19:41:02.558Z,7.00
2023-02-02T19:43:33.086Z,7.00
2023-02-02T19:46:01.226Z,7.00
2023-02-02T19:48:34.705Z,7.00
2023-02-02T19:51:42.735Z,7.00
2023-02-02T19:54:30.638Z,7.00
2023-02-02T19:57:00.950Z,7.00
2023-02-02T19:59:36.100Z,7.00
2023-02-02T20:02:39.699Z,7.00
2023-02-02T20:05:19.748Z,7.00
2023-02-02T20:07:52.981Z,7.00
2023-02-02T20:10:23.501Z,7.00
2023-02-02T20:12:53.027Z,6.90
2023-02-02T20:15:29.127Z,6.90
2023-02-02T20:17:59.200Z,6.90
2023-02-02T20:20:29.750Z,6.90
2023-02-02T20:22:59.250Z,6.90
2023-02-02T20:25:29.239Z,6.80
2023-02-02T20:27:58.993Z,6.80
2023-02-02T20:30:30.973Z,6.80
2023-02-02T20:33:01.522Z,6.80
2023-02-02T20:35:37.180Z,6.80
2023-02-02T20:38:21.327Z,6.80
2023-02-02T20:40:49.564Z,6.70
2023-02-02T20:43:17.799Z,6.70
2023-02-02T20:45:45.896Z,6.70
2023-02-02T20:48:15.269Z,6.60
2023-02-02T20:50:44.144Z,6.50
2023-02-02T20:53:14.760Z,6.50
2023-02-02T20:55:44.621Z,6.40
2023-02-02T20:58:12.843Z,6.30
2023-02-02T21:00:41.296Z,6.30
2023-02-02T21:03:09.407Z,6.20
2023-02-02T21:05:38.052Z,6.20
2023-02-02T21:08:07.078Z,6.30
2023-02-02T21:10:35.418Z,6.30
2023-02-02T21:13:04.696Z,6.20
2023-02-02T21:15:32.700Z,6.20
2023-02-02T21:18:00.584Z,6.20
2023-02-02T21:20:28.975Z,6.20
2023-02-02T21:22:57.091Z,6.20
2023-02-02T21:25:25.076Z,6.20
2023-02-02T21:27:53.205Z,6.10
2023-02-02T21:30:22.722Z,6.20
2023-02-02T21:32:50.746Z,6.20
2023-02-02T21:35:18.851Z,6.20
2023-02-02T21:37:51.180Z,6.20
2023-02-02T21:40:27.693Z,6.20
2023-02-02T21:43:00.241Z,6.20
2023-02-02T21:45:36.013Z,6.20
2023-02-02T21:48:07.402Z,6.20
2023-02-02T21:50:37.697Z,6.20
2023-02-02T21:53:17.690Z,6.20
2023-02-02T21:55:47.126Z,6.20
2023-02-02T21:58:24.927Z,6.30
2023-02-02T22:00:55.251Z,6.30
2023-02-02T22:03:33.945Z,6.30
2023-02-02T22:06:19.114Z,6.30
2023-02-02T22:08:47.347Z,6.30
2023-02-02T22:11:29.284Z,6.30
2023-02-02T22:14:01.823Z,6.40
2023-02-02T22:16:48.555Z,6.40
2023-02-02T22:19:25.702Z,6.40
2023-02-02T22:21:54.076Z,6.40
2023-02-02T22:24:22.327Z,6.40
2023-02-02T22:26:50.373Z,6.40
2023-02-02T22:29:21.250Z,6.40
2023-02-02T22:31:50.670Z,6.40
2023-02-02T22:34:18.646Z,6.40
2023-02-02T22:36:46.622Z,6.40
2023-02-02T22:39:14.561Z,6.40
2023-02-02T22:41:42.637Z,6.40
2023-02-02T22:44:10.627Z,6.40
2023-02-02T22:46:38.690Z,6.40
2023-02-02T22:49:08.098Z,6.50
2023-02-02T22:51:36.063Z,6.50
2023-02-02T22:54:04.112Z,6.50
2023-02-02T22:56:32.304Z,6.50
2023-02-02T22:59:01.451Z,6.50
2023-02-02T23:01:29.449Z,6.50
2023-02-02T23:03:57.962Z,6.50
2023-02-02T23:06:27.415Z,6.50
2023-02-02T23:08:55.408Z,6.50
2023-02-02T23:11:23.542Z,6.50
2023-02-02T23:13:51.779Z,6.50
2023-02-02T23:16:19.793Z,6.50
2023-02-02T23:18:48.310Z,6.40
2023-02-02T23:21:17.483Z,6.40
2023-02-02T23:23:46.855Z,6.40
2023-02-02T23:26:14.964Z,6.40
2023-02-02T23:28:42.929Z,6.30
2023-02-02T23:31:11.245Z,6.30
2023-02-02T23:33:39.394Z,6.30
2023-02-02T23:36:08.078Z,6.30
2023-02-02T23:38:36.110Z,6.30
2023-02-02T23:41:05.542Z,6.30
2023-02-02T23:43:33.482Z,6.30
2023-02-02T23:46:01.507Z,6.40
2023-02-02T23:48:29.887Z,6.40
2023-02-02T23:50:57.920Z,6.40
2023-02-02T23:53:26.012Z,6.40
2023-02-02T23:55:54.990Z,6.40
2023-02-02T23:58:24.341Z,6.40
